createdAt,value
2018-03-02T00:00:02.070Z,101261.53
2018-03-02T00:04:05.632Z,101261.98
2018-03-02T00:08:09.755Z,101253.97
2018-03-02T00:12:13.906Z,101249.59
2018-03-02T00:16:17.288Z,101246.63
2018-03-02T00:20:21.515Z,101247.52
2018-03-02T00:24:25.710Z,101243.81
2018-03-02T00:28:29.095Z,101231.30
2018-03-02T00:32:32.450Z,101232.97
2018-03-02T00:36:36.586Z,101226.64
2018-03-02T00:40:39.986Z,101227.73
2018-03-02T00:44:44.119Z,101223.78
2018-03-02T00:48:47.489Z,101227.05
2018-03-02T00:52:50.874Z,101217.78
2018-03-02T00:56:54.238Z,101213.73
2018-03-02T01:00:57.614Z,101217.55
2018-03-02T01:05:01.764Z,101215.59
2018-03-02T01:09:05.165Z,101221.50
2018-03-02T01:13:08.558Z,101212.72
2018-03-02T01:17:12.704Z,101206.32
2018-03-02T01:21:16.070Z,101198.84
2018-03-02T01:25:20.231Z,101194.77
2018-03-02T01:29:23.632Z,101196.81
2018-03-02T01:33:27.768Z,101192.55
2018-03-02T01:37:31.360Z,101184.75
2018-03-02T01:41:35.493Z,101177.19
2018-03-02T01:45:38.854Z,101168.17
2018-03-02T01:49:42.219Z,101165.69
2018-03-02T01:53:45.576Z,101166.81
2018-03-02T01:57:48.940Z,101156.78
2018-03-02T02:01:52.355Z,101154.88
2018-03-02T02:05:55.728Z,101158.90
2018-03-02T02:09:59.071Z,101150.33
2018-03-02T02:14:02.441Z,101164.10
2018-03-02T02:18:05.877Z,101154.72
2018-03-02T02:22:09.265Z,101147.27
2018-03-02T02:26:12.636Z,101148.22
2018-03-02T02:30:16.764Z,101146.16
2018-03-02T02:34:20.890Z,101136.56
2018-03-02T02:38:25.031Z,101128.78
2018-03-02T02:42:28.431Z,101132.52
2018-03-02T02:46:31.796Z,101133.83
2018-03-02T02:50:35.177Z,101120.41
2018-03-02T02:54:38.577Z,101123.91
2018-03-02T02:58:41.947Z,101111.07
2018-03-02T03:02:45.346Z,101106.06
2018-03-02T03:06:49.590Z,101097.53
2018-03-02T03:10:52.965Z,101097.55
2018-03-02T03:14:57.115Z,101107.44
2018-03-02T03:19:00.480Z,101099.70
2018-03-02T03:23:03.860Z,101101.49
2018-03-02T03:27:07.230Z,101105.74
2018-03-02T03:31:10.605Z,101110.11
2018-03-02T03:35:14.804Z,101102.73
2018-03-02T03:39:18.165Z,101101.07
2018-03-02T03:43:21.537Z,101097.97
2018-03-02T03:47:24.913Z,101089.92
2018-03-02T03:51:28.277Z,101084.55
2018-03-02T03:55:31.673Z,101085.50
2018-03-02T03:59:35.831Z,101085.54
2018-03-02T04:03:39.212Z,101088.38
2018-03-02T04:07:42.575Z,101081.94
2018-03-02T04:11:45.949Z,101082.56
2018-03-02T04:15:49.326Z,101070.42
2018-03-02T04:19:52.700Z,101074.52
2018-03-02T04:23:56.065Z,101048.70
2018-03-02T04:27:59.425Z,101047.02
2018-03-02T04:32:03.554Z,101042.33
2018-03-02T04:36:07.698Z,101034.28
2018-03-02T04:40:11.079Z,101035.91
2018-03-02T04:44:15.266Z,101031.32
2018-03-02T04:48:18.625Z,101029.11
2018-03-02T04:52:22.762Z,101023.05
2018-03-02T04:56:26.269Z,101019.64
2018-03-02T05:00:29.749Z,101011.65
2018-03-02T05:04:33.875Z,101008.41
2018-03-02T05:08:38.009Z,101008.59
2018-03-02T05:12:41.389Z,101010.31
2018-03-02T05:16:44.746Z,101010.20
2018-03-02T05:20:48.162Z,101009.69
2018-03-02T05:24:51.584Z,101008.28
2018-03-02T05:28:54.941Z,101006.66
2018-03-02T05:32:59.076Z,101006.29
2018-03-02T05:37:02.581Z,100998.18
2018-03-02T05:41:06.059Z,100995.88
2018-03-02T05:45:10.251Z,100991.18
2018-03-02T05:49:13.617Z,100981.56
2018-03-02T05:53:16.993Z,100982.86
2018-03-02T05:57:20.379Z,100976.42
2018-03-02T06:01:23.747Z,100962.92
2018-03-02T06:05:27.130Z,100959.09
2018-03-02T06:09:31.273Z,100951.17
2018-03-02T06:13:34.654Z,100938.20
2018-03-02T06:17:38.788Z,100938.95
2018-03-02T06:21:42.159Z,100943.42
2018-03-02T06:25:45.524Z,100943.78
2018-03-02T06:29:48.899Z,100948.02
2018-03-02T06:33:53.037Z,100938.78
2018-03-02T06:37:56.429Z,100940.40
2018-03-02T06:41:59.844Z,100933.53
2018-03-02T06:46:03.231Z,100928.09
2018-03-02T06:50:07.369Z,100930.12
2018-03-02T06:54:10.736Z,100929.15
2018-03-02T06:58:14.877Z,100924.56
2018-03-02T07:02:19.022Z,100925.79
2018-03-02T07:06:22.388Z,100917.59
2018-03-02T07:10:25.760Z,100922.67
2018-03-02T07:14:29.132Z,100915.56
2018-03-02T07:18:33.278Z,100904.87
2018-03-02T07:22:36.622Z,100916.80
2018-03-02T07:26:40.904Z,100915.69
2018-03-02T07:30:44.279Z,100907.91
2018-03-02T07:34:48.411Z,100904.09
2018-03-02T07:38:52.535Z,100906.70
2018-03-02T07:42:56.686Z,100897.39
2018-03-02T07:47:00.054Z,100895.06
2018-03-02T07:51:04.190Z,100886.35
2018-03-02T07:55:08.317Z,100882.78
2018-03-02T07:59:12.504Z,100888.11
2018-03-02T08:03:16.060Z,100875.58
2018-03-02T08:07:19.428Z,100866.47
2018-03-02T08:11:22.810Z,100869.41
2018-03-02T08:15:26.171Z,100861.95
2018-03-02T08:19:29.553Z,100864.85
2018-03-02T08:23:33.702Z,100855.44
2018-03-02T08:27:37.061Z,100844.21
2018-03-02T08:31:40.432Z,100843.56
2018-03-02T08:35:43.950Z,100839.47
2018-03-02T08:39:47.327Z,100838.03
2018-03-02T08:43:50.765Z,100827.27
2018-03-02T08:47:54.131Z,100821.06
2018-03-02T08:51:57.586Z,100822.15
2018-03-02T08:56:00.948Z,100810.02
2018-03-02T09:00:04.386Z,100810.37
2018-03-02T09:04:07.754Z,100805.33
2018-03-02T09:08:11.886Z,100794.17
2018-03-02T09:12:15.370Z,100785.97
2018-03-02T09:16:19.519Z,100775.18
2018-03-02T09:20:23.043Z,100767.62
2018-03-02T09:24:26.440Z,100756.14
2018-03-02T09:28:29.877Z,100750.03
2018-03-02T09:32:33.331Z,100749.30
2018-03-02T09:36:37.472Z,100739.56
2018-03-02T09:40:40.867Z,100733.13
2018-03-02T09:44:45.087Z,100731.77
2018-03-02T09:48:49.256Z,100723.80
2018-03-02T09:52:52.824Z,100724.20
2018-03-02T09:56:56.972Z,100717.44
2018-03-02T10:01:00.395Z,100713.11
2018-03-02T10:05:03.745Z,100709.84
2018-03-02T10:09:07.102Z,100699.97
2018-03-02T10:13:10.474Z,100694.98
2018-03-02T10:17:13.877Z,100686.94
2018-03-02T10:21:17.993Z,100685.63
2018-03-02T10:25:22.125Z,100681.05
2018-03-02T10:29:26.243Z,100678.16
2018-03-02T10:33:30.373Z,100660.14
2018-03-02T10:37:34.527Z,100663.38
2018-03-02T10:41:37.948Z,100658.75
2018-03-02T10:45:41.339Z,100649.94
2018-03-02T10:49:44.715Z,100652.97
2018-03-02T10:53:48.855Z,100638.69
2018-03-02T10:57:52.346Z,100636.08
2018-03-02T11:01:56.574Z,100643.48
2018-03-02T11:06:00.705Z,100631.52
2018-03-02T11:10:04.070Z,100636.02
2018-03-02T11:14:07.450Z,100629.17
2018-03-02T11:18:10.796Z,100625.16
2018-03-02T11:22:14.354Z,100620.98
2018-03-02T11:26:17.748Z,100623.53
2018-03-02T11:30:21.115Z,100623.03
2018-03-02T11:34:24.485Z,100621.78
2018-03-02T11:38:27.936Z,100615.72
2018-03-02T11:42:31.301Z,100605.02
2018-03-02T11:46:34.674Z,100590.23
2018-03-02T11:50:38.057Z,100613.54
2018-03-02T11:54:42.378Z,100609.75
2018-03-02T11:58:46.620Z,100605.81
2018-03-02T12:02:50.765Z,100596.32
2018-03-02T12:06:54.118Z,100598.12
2018-03-02T12:10:57.473Z,100587.38
2018-03-02T12:15:00.824Z,100596.61
2018-03-02T12:19:04.190Z,100588.50
2018-03-02T12:23:07.546Z,100609.07
2018-03-02T12:27:10.904Z,100609.35
2018-03-02T12:31:14.282Z,100610.86
2018-03-02T12:35:17.659Z,100611.04
2018-03-02T12:39:21.804Z,100601.70
2018-03-02T12:43:25.987Z,100601.45
2018-03-02T12:47:29.362Z,100603.85
2018-03-02T12:51:32.871Z,100608.58
2018-03-02T12:55:36.224Z,100606.77
2018-03-02T12:59:39.586Z,100606.40
2018-03-02T13:03:42.990Z,100607.86
2018-03-02T13:07:46.384Z,100600.57
2018-03-02T13:11:49.741Z,100604.53
2018-03-02T13:15:53.342Z,100594.88
2018-03-02T13:19:56.696Z,100601.12
2018-03-02T13:24:00.091Z,100604.45
2018-03-02T13:28:21.848Z,100603.41
2018-03-02T13:32:25.198Z,100605.65
2018-03-02T13:36:28.597Z,100603.05
2018-03-02T13:40:49.713Z,100611.63
2018-03-02T13:44:53.216Z,100604.00
2018-03-02T13:49:14.556Z,100606.73
2018-03-02T13:53:17.921Z,100611.42
2018-03-02T13:57:39.104Z,100600.57
2018-03-02T14:01:42.510Z,100606.25
2018-03-02T14:05:45.891Z,100603.67
2018-03-02T14:09:49.262Z,100597.16
2018-03-02T14:13:52.731Z,100593.11
2018-03-02T14:17:56.278Z,100587.55
2018-03-02T14:21:59.655Z,100581.00
2018-03-02T14:26:03.789Z,100584.59
2018-03-02T14:30:07.980Z,100583.50
2018-03-02T14:34:12.170Z,100568.92
2018-03-02T14:38:15.530Z,100569.69
2018-03-02T14:42:23.030Z,100564.61
2018-03-02T14:46:27.274Z,100568.56
2018-03-02T14:50:31.429Z,100563.80
2018-03-02T14:54:34.836Z,100559.95
2018-03-02T14:58:38.249Z,100551.95
2018-03-02T15:02:41.887Z,100547.77
2018-03-02T15:06:45.280Z,100547.24
2018-03-02T15:10:48.723Z,100543.44
2018-03-02T15:14:52.893Z,100544.88
2018-03-02T15:18:56.313Z,100533.30
2018-03-02T15:22:59.833Z,100531.27
2018-03-02T15:27:03.265Z,100535.06
2018-03-02T15:31:07.458Z,100523.75
2018-03-02T15:35:10.946Z,100527.98
2018-03-02T15:39:14.501Z,100525.63
2018-03-02T15:43:17.876Z,100523.95
2018-03-02T15:47:22.852Z,100520.77
2018-03-02T15:51:26.372Z,100521.77
2018-03-02T15:55:30.723Z,100523.23
2018-03-02T15:59:34.146Z,100529.84
2018-03-02T16:03:37.563Z,100535.11
2018-03-02T16:07:41.111Z,100537.58
2018-03-02T16:11:45.308Z,100532.81
2018-03-02T16:15:48.802Z,100539.13
2018-03-02T16:19:52.200Z,100552.89
2018-03-02T16:23:55.608Z,100544.12
2018-03-02T16:27:59.024Z,100546.69
2018-03-02T16:32:02.433Z,100538.56
2018-03-02T16:36:05.857Z,100552.08
2018-03-02T16:40:10.126Z,100551.58
2018-03-02T16:44:14.358Z,100548.10
2018-03-02T16:48:21.381Z,100530.48
2018-03-02T16:52:25.492Z,100535.89
2018-03-02T16:56:29.230Z,100529.03
2018-03-02T17:00:33.417Z,100528.00
2018-03-02T17:04:37.996Z,100531.22
2018-03-02T17:08:41.991Z,100536.19
2018-03-02T17:12:46.014Z,100553.15
2018-03-02T17:16:49.467Z,100537.53
2018-03-02T17:20:53.020Z,100535.39
2018-03-02T17:24:56.434Z,100551.65
2018-03-02T17:28:59.828Z,100539.58
2018-03-02T17:33:03.419Z,100541.40
2018-03-02T17:37:07.645Z,100543.14
2018-03-02T17:41:11.797Z,100552.83
2018-03-02T17:45:15.233Z,100547.42
2018-03-02T17:49:18.580Z,100535.55
2018-03-02T17:53:22.015Z,100537.58
2018-03-02T17:57:25.485Z,100539.87
2018-03-02T18:01:29.650Z,100548.05
2018-03-02T18:05:33.025Z,100544.08
2018-03-02T18:09:37.173Z,100533.80
2018-03-02T18:13:40.589Z,100546.95
2018-03-02T18:17:43.980Z,100548.23
2018-03-02T18:21:47.480Z,100552.95
2018-03-02T18:25:50.891Z,100548.03
2018-03-02T18:29:54.253Z,100552.59
2018-03-02T18:33:57.636Z,100552.32
2018-03-02T18:38:01.051Z,100550.14
2018-03-02T18:42:04.443Z,100546.80
2018-03-02T18:46:07.831Z,100550.26
2018-03-02T18:50:11.216Z,100542.07
2018-03-02T18:54:15.395Z,100550.14
2018-03-02T18:58:18.843Z,100556.73
2018-03-02T19:02:22.225Z,100548.27
2018-03-02T19:06:25.626Z,100548.34
2018-03-02T19:10:29.039Z,100547.88
2018-03-02T19:14:32.436Z,100540.59
2018-03-02T19:18:37.334Z,100534.00
2018-03-02T19:22:40.735Z,100549.63
2018-03-02T19:26:44.132Z,100549.55
2018-03-02T19:30:47.539Z,100538.45
2018-03-02T19:34:51.051Z,100551.77
2018-03-02T19:38:54.469Z,100555.15
2018-03-02T19:42:57.870Z,100556.58
2018-03-02T19:47:01.293Z,100547.59
2018-03-02T19:51:04.827Z,100558.52
2018-03-02T19:55:08.230Z,100551.53
2018-03-02T19:59:11.665Z,100552.41
2018-03-02T20:03:15.874Z,100558.80
2018-03-02T20:07:20.070Z,100556.53
2018-03-02T20:11:23.534Z,100551.97
2018-03-02T20:15:27.835Z,100548.58
2018-03-02T20:19:31.348Z,100551.92
2018-03-02T20:23:34.744Z,100552.59
2018-03-02T20:27:38.162Z,100557.25
2018-03-02T20:31:41.682Z,100566.52
2018-03-02T20:35:45.898Z,100570.92
2018-03-02T20:39:50.062Z,100550.02
2018-03-02T20:43:53.510Z,100562.33
2018-03-02T20:47:56.939Z,100570.84
2018-03-02T20:52:01.080Z,100561.05
2018-03-02T20:56:05.230Z,100560.78
2018-03-02T21:00:08.738Z,100569.33
2018-03-02T21:04:12.151Z,100567.78
2018-03-02T21:08:15.548Z,100552.63
2018-03-02T21:12:18.932Z,100557.62
2018-03-02T21:16:23.066Z,100558.47
2018-03-02T21:20:26.485Z,100566.06
2018-03-02T21:24:29.891Z,100564.32
2018-03-02T21:28:33.439Z,100568.02
2018-03-02T21:32:36.917Z,100569.84
2018-03-02T21:36:40.297Z,100576.02
2018-03-02T21:40:43.716Z,100569.39
2018-03-02T21:44:47.116Z,100576.88
2018-03-02T21:48:50.696Z,100577.02
2018-03-02T21:52:54.134Z,100590.48
2018-03-02T21:56:57.558Z,100575.19
2018-03-02T22:01:01.063Z,100581.18
2018-03-02T22:05:04.443Z,100590.73
2018-03-02T22:09:08.627Z,100578.42
2018-03-02T22:13:11.995Z,100575.78
2018-03-02T22:17:16.303Z,100574.72
2018-03-02T22:21:20.481Z,100564.73
2018-03-02T22:25:23.972Z,100567.92
2018-03-02T22:29:27.362Z,100566.88
2018-03-02T22:33:30.933Z,100582.34
2018-03-02T22:37:35.042Z,100570.98
2018-03-02T22:41:38.411Z,100590.25
2018-03-02T22:45:41.802Z,100586.67
2018-03-02T22:49:45.184Z,100579.73
2018-03-02T22:53:49.439Z,100586.41
2018-03-02T22:57:52.828Z,100589.03
2018-03-02T23:04:26.051Z,100582.33
2018-03-02T23:08:29.642Z,100576.95
2018-03-02T23:12:33.778Z,100571.33
2018-03-02T23:16:37.216Z,100578.23
2018-03-02T23:20:40.602Z,100573.27
2018-03-02T23:24:43.985Z,100566.88
2018-03-02T23:28:48.141Z,100573.81
2018-03-02T23:32:51.538Z,100572.06
2018-03-02T23:36:55.002Z,100574.09
2018-03-02T23:40:58.374Z,100576.75
2018-03-02T23:45:01.748Z,100580.30
2018-03-02T23:49:05.134Z,100579.56
2018-03-02T23:53:09.395Z,100583.16
2018-03-02T23:57:12.776Z,100579.02
